sensor_id;sensor_type;location;lat;lon;timestamp;pressure;altitude;pressure_sealevel;temperature;humidity
70103;BME280;57470;50.034;15.256;2022-09-29T00:02:24;97974.13;;;7.15;94.61
70103;BME280;57470;50.034;15.256;2022-09-29T00:04:49;97981.94;;;7.05;94.94
70103;BME280;57470;50.034;15.256;2022-09-29T00:07:14;97978.41;;;7.16;95.57
70103;BME280;57470;50.034;15.256;2022-09-29T00:09:40;97969.41;;;7.19;95.09
70103;BME280;57470;50.034;15.256;2022-09-29T00:12:05;97976.16;;;7.00;95.60
70103;BME280;57470;50.034;15.256;2022-09-29T00:14:31;97980.25;;;7.15;96.38
70103;BME280;57470;50.034;15.256;2022-09-29T00:16:56;97984.69;;;7.04;95.28
70103;BME280;57470;50.034;15.256;2022-09-29T00:19:22;97988.91;;;7.06;95.25
70103;BME280;57470;50.034;15.256;2022-09-29T00:21:47;97986.84;;;7.10;94.94
70103;BME280;57470;50.034;15.256;2022-09-29T00:24:12;97987.47;;;7.13;94.67
70103;BME280;57470;50.034;15.256;2022-09-29T00:26:38;97993.09;;;6.98;94.88
70103;BME280;57470;50.034;15.256;2022-09-29T00:29:03;97988.19;;;7.04;94.28
70103;BME280;57470;50.034;15.256;2022-09-29T00:31:30;97992.50;;;6.94;94.25
70103;BME280;57470;50.034;15.256;2022-09-29T00:33:57;97992.59;;;6.93;93.65
70103;BME280;57470;50.034;15.256;2022-09-29T00:36:23;98001.25;;;6.84;94.08
70103;BME280;57470;50.034;15.256;2022-09-29T00:38:49;97994.63;;;6.78;93.87
70103;BME280;57470;50.034;15.256;2022-09-29T00:41:22;97993.91;;;6.76;93.80
70103;BME280;57470;50.034;15.256;2022-09-29T00:49:47;97984.50;;;6.72;93.47
70103;BME280;57470;50.034;15.256;2022-09-29T00:54:18;97988.50;;;6.77;93.57
70103;BME280;57470;50.034;15.256;2022-09-29T00:56:45;97988.25;;;6.81;93.47
70103;BME280;57470;50.034;15.256;2022-09-29T00:59:15;97994.50;;;6.68;93.79
70103;BME280;57470;50.034;15.256;2022-09-29T01:01:45;97992.81;;;6.67;94.00
70103;BME280;57470;50.034;15.256;2022-09-29T01:04:13;98002.31;;;6.70;94.08
70103;BME280;57470;50.034;15.256;2022-09-29T01:06:50;97997.88;;;6.70;93.91
70103;BME280;57470;50.034;15.256;2022-09-29T01:09:19;98001.09;;;6.74;93.89
70103;BME280;57470;50.034;15.256;2022-09-29T01:11:45;98003.84;;;6.61;94.87
70103;BME280;57470;50.034;15.256;2022-09-29T01:14:12;97997.88;;;6.70;95.08
70103;BME280;57470;50.034;15.256;2022-09-29T01:16:38;98009.00;;;6.63;94.81
70103;BME280;57470;50.034;15.256;2022-09-29T01:24:47;98012.47;;;6.63;95.80
70103;BME280;57470;50.034;15.256;2022-09-29T01:30:45;98005.25;;;6.54;95.35
70103;BME280;57470;50.034;15.256;2022-09-29T01:38:49;98014.06;;;6.66;96.02
70103;BME280;57470;50.034;15.256;2022-09-29T01:41:35;98010.13;;;6.36;96.20
70103;BME280;57470;50.034;15.256;2022-09-29T01:44:22;98020.75;;;6.59;96.95
70103;BME280;57470;50.034;15.256;2022-09-29T01:47:15;98021.88;;;6.67;96.26
70103;BME280;57470;50.034;15.256;2022-09-29T01:49:52;98005.41;;;6.53;96.94
70103;BME280;57470;50.034;15.256;2022-09-29T01:52:24;97999.53;;;6.60;97.64
70103;BME280;57470;50.034;15.256;2022-09-29T01:55:01;97994.97;;;6.73;97.31
70103;BME280;57470;50.034;15.256;2022-09-29T02:00:18;98001.97;;;6.86;96.84
70103;BME280;57470;50.034;15.256;2022-09-29T02:05:43;98004.50;;;6.87;97.04
70103;BME280;57470;50.034;15.256;2022-09-29T02:08:15;98008.22;;;6.85;96.96
70103;BME280;57470;50.034;15.256;2022-09-29T02:10:50;98013.72;;;6.82;97.25
70103;BME280;57470;50.034;15.256;2022-09-29T02:13:19;98014.47;;;6.95;97.48
70103;BME280;57470;50.034;15.256;2022-09-29T02:15:47;98015.22;;;6.97;96.82
70103;BME280;57470;50.034;15.256;2022-09-29T02:18:21;98016.91;;;6.98;96.73
70103;BME280;57470;50.034;15.256;2022-09-29T02:20:48;98015.56;;;7.03;96.51
70103;BME280;57470;50.034;15.256;2022-09-29T02:23:14;98012.41;;;6.98;96.90
70103;BME280;57470;50.034;15.256;2022-09-29T02:25:40;98016.41;;;7.04;96.40
70103;BME280;57470;50.034;15.256;2022-09-29T02:28:06;98012.41;;;6.98;96.48
70103;BME280;57470;50.034;15.256;2022-09-29T02:30:32;98011.13;;;7.04;96.13
70103;BME280;57470;50.034;15.256;2022-09-29T02:32:58;98011.84;;;7.06;96.33
70103;BME280;57470;50.034;15.256;2022-09-29T02:35:31;98014.38;;;6.96;96.33
70103;BME280;57470;50.034;15.256;2022-09-29T02:38:03;98014.59;;;7.04;96.21
70103;BME280;57470;50.034;15.256;2022-09-29T02:40:52;98022.88;;;7.00;96.06
70103;BME280;57470;50.034;15.256;2022-09-29T02:43:30;98023.97;;;7.08;95.79
70103;BME280;57470;50.034;15.256;2022-09-29T02:51:52;98025.91;;;7.06;96.25
70103;BME280;57470;50.034;15.256;2022-09-29T02:57:25;98022.75;;;6.90;96.40
70103;BME280;57470;50.034;15.256;2022-09-29T03:02:25;98027.16;;;6.32;100.00
70103;BME280;57470;50.034;15.256;2022-09-29T03:04:51;98017.25;;;6.47;100.00
70103;BME280;57470;50.034;15.256;2022-09-29T03:07:18;98031.16;;;6.84;100.00
70103;BME280;57470;50.034;15.256;2022-09-29T03:09:43;98035.59;;;6.84;99.25
70103;BME280;57470;50.034;15.256;2022-09-29T03:12:09;98048.84;;;6.95;98.72
70103;BME280;57470;50.034;15.256;2022-09-29T03:14:34;98043.19;;;6.88;98.22
70103;BME280;57470;50.034;15.256;2022-09-29T03:16:59;98036.34;;;6.97;97.58
70103;BME280;57470;50.034;15.256;2022-09-29T03:19:25;98041.03;;;7.04;97.54
70103;BME280;57470;50.034;15.256;2022-09-29T03:21:50;98045.13;;;7.08;97.16
70103;BME280;57470;50.034;15.256;2022-09-29T03:24:16;98046.69;;;7.11;96.51
70103;BME280;57470;50.034;15.256;2022-09-29T03:26:41;98046.28;;;6.82;96.98
70103;BME280;57470;50.034;15.256;2022-09-29T03:29:06;98047.47;;;6.89;96.79
70103;BME280;57470;50.034;15.256;2022-09-29T03:31:32;98040.69;;;6.98;96.14
70103;BME280;57470;50.034;15.256;2022-09-29T03:33:57;98033.09;;;6.93;95.91
70103;BME280;57470;50.034;15.256;2022-09-29T03:36:23;98034.03;;;6.92;95.54
70103;BME280;57470;50.034;15.256;2022-09-29T03:38:48;98043.19;;;6.88;95.48
70103;BME280;57470;50.034;15.256;2022-09-29T03:41:14;98034.88;;;6.93;95.55
70103;BME280;57470;50.034;15.256;2022-09-29T03:43:40;98039.94;;;6.96;95.54
70103;BME280;57470;50.034;15.256;2022-09-29T03:46:05;98048.31;;;6.90;95.18
70103;BME280;57470;50.034;15.256;2022-09-29T03:48:31;98036.66;;;6.81;95.48
70103;BME280;57470;50.034;15.256;2022-09-29T03:50:59;98042.78;;;6.82;95.61
70103;BME280;57470;50.034;15.256;2022-09-29T03:53:25;98037.88;;;6.77;95.76
70103;BME280;57470;50.034;15.256;2022-09-29T03:55:50;98042.56;;;6.85;95.26
70103;BME280;57470;50.034;15.256;2022-09-29T03:58:16;98042.78;;;6.82;95.15
70103;BME280;57470;50.034;15.256;2022-09-29T04:00:42;98050.50;;;6.85;94.90
70103;BME280;57470;50.034;15.256;2022-09-29T04:03:07;98040.25;;;6.80;94.79
70103;BME280;57470;50.034;15.256;2022-09-29T04:05:34;98045.31;;;6.83;95.19
70103;BME280;57470;50.034;15.256;2022-09-29T04:08:05;98048.31;;;6.78;94.86
70103;BME280;57470;50.034;15.256;2022-09-29T04:10:35;98049.25;;;6.66;94.96
70103;BME280;57470;50.034;15.256;2022-09-29T04:13:00;98046.97;;;6.62;95.12
70103;BME280;57470;50.034;15.256;2022-09-29T04:15:25;98048.28;;;6.67;94.99
70103;BME280;57470;50.034;15.256;2022-09-29T04:17:51;98057.16;;;6.66;94.83
70103;BME280;57470;50.034;15.256;2022-09-29T04:20:16;98052.00;;;6.65;94.52
70103;BME280;57470;50.034;15.256;2022-09-29T04:22:42;98051.88;;;6.66;94.50
70103;BME280;57470;50.034;15.256;2022-09-29T04:25:07;98055.22;;;6.57;94.78
70103;BME280;57470;50.034;15.256;2022-09-29T04:27:33;98053.53;;;6.56;94.76
70103;BME280;57470;50.034;15.256;2022-09-29T04:29:58;98055.41;;;6.43;94.41
70103;BME280;57470;50.034;15.256;2022-09-29T04:32:23;98056.25;;;6.44;94.81
70103;BME280;57470;50.034;15.256;2022-09-29T04:34:49;98052.19;;;6.51;94.74
70103;BME280;57470;50.034;15.256;2022-09-29T04:37:14;98059.03;;;6.53;94.69
70103;BME280;57470;50.034;15.256;2022-09-29T04:39:40;98063.56;;;6.40;95.01
70103;BME280;57470;50.034;15.256;2022-09-29T04:42:05;98066.47;;;6.48;94.87
70103;BME280;57470;50.034;15.256;2022-09-29T04:44:30;98065.91;;;6.32;95.02
70103;BME280;57470;50.034;15.256;2022-09-29T04:46:56;98064.88;;;6.34;94.66
70103;BME280;57470;50.034;15.256;2022-09-29T04:49:21;98070.53;;;6.41;94.01
70103;BME280;57470;50.034;15.256;2022-09-29T04:51:47;98071.66;;;6.26;94.06
70103;BME280;57470;50.034;15.256;2022-09-29T04:54:12;98071.88;;;6.23;94.36
70103;BME280;57470;50.034;15.256;2022-09-29T04:56:38;98079.81;;;6.23;94.14
70103;BME280;57470;50.034;15.256;2022-09-29T04:59:04;98078.03;;;6.11;94.32
70103;BME280;57470;50.034;15.256;2022-09-29T05:01:29;98085.84;;;6.12;94.21
70103;BME280;57470;50.034;15.256;2022-09-29T05:03:55;98087.72;;;6.23;94.08
70103;BME280;57470;50.034;15.256;2022-09-29T05:06:21;98079.94;;;6.09;93.74
70103;BME280;57470;50.034;15.256;2022-09-29T05:08:47;98090.06;;;6.15;94.43
70103;BME280;57470;50.034;15.256;2022-09-29T05:11:12;98089.50;;;6.22;93.97
70103;BME280;57470;50.034;15.256;2022-09-29T05:13:38;98092.25;;;6.21;94.12
70103;BME280;57470;50.034;15.256;2022-09-29T05:16:03;98089.34;;;6.13;94.33
70103;BME280;57470;50.034;15.256;2022-09-29T05:18:30;98092.72;;;6.15;94.79
70103;BME280;57470;50.034;15.256;2022-09-29T05:21:04;98093.09;;;6.21;94.34
70103;BME280;57470;50.034;15.256;2022-09-29T05:23:29;98083.59;;;6.19;94.30
70103;BME280;57470;50.034;15.256;2022-09-29T05:26:00;98081.69;;;6.21;94.55
70103;BME280;57470;50.034;15.256;2022-09-29T05:28:25;98080.00;;;6.20;94.60
70103;BME280;57470;50.034;15.256;2022-09-29T05:30:50;98088.94;;;6.30;94.83
70103;BME280;57470;50.034;15.256;2022-09-29T05:33:16;98082.25;;;6.37;94.90
70103;BME280;57470;50.034;15.256;2022-09-29T05:35:41;98094.28;;;6.41;95.25
70103;BME280;57470;50.034;15.256;2022-09-29T05:38:06;98094.06;;;6.44;95.83
70103;BME280;57470;50.034;15.256;2022-09-29T05:40:32;98088.81;;;6.55;95.35
70103;BME280;57470;50.034;15.256;2022-09-29T05:42:58;98096.16;;;6.63;95.67
70103;BME280;57470;50.034;15.256;2022-09-29T05:45:24;98103.66;;;6.69;95.53
70103;BME280;57470;50.034;15.256;2022-09-29T05:47:50;98102.50;;;6.84;95.71
70103;BME280;57470;50.034;15.256;2022-09-29T05:50:15;98102.75;;;6.92;95.70
70103;BME280;57470;50.034;15.256;2022-09-29T05:52:40;98114.56;;;6.99;95.70
70103;BME280;57470;50.034;15.256;2022-09-29T05:55:06;98108.47;;;7.10;95.91
70103;BME280;57470;50.034;15.256;2022-09-29T05:57:35;98110.19;;;7.22;95.75
70103;BME280;57470;50.034;15.256;2022-09-29T06:00:01;98113.53;;;7.35;95.47
70103;BME280;57470;50.034;15.256;2022-09-29T06:02:26;98111.66;;;7.60;94.90
70103;BME280;57470;50.034;15.256;2022-09-29T06:04:52;98126.19;;;7.99;94.06
70103;BME280;57470;50.034;15.256;2022-09-29T06:07:17;98122.81;;;8.19;93.17
70103;BME280;57470;50.034;15.256;2022-09-29T06:09:42;98123.88;;;8.27;92.60
70103;BME280;57470;50.034;15.256;2022-09-29T06:12:08;98124.94;;;8.47;91.76
70103;BME280;57470;50.034;15.256;2022-09-29T06:14:33;98116.88;;;10.13;87.65
70103;BME280;57470;50.034;15.256;2022-09-29T06:16:59;98119.38;;;10.36;84.23
70103;BME280;57470;50.034;15.256;2022-09-29T06:19:24;98116.34;;;10.10;84.81
70103;BME280;57470;50.034;15.256;2022-09-29T06:21:49;98109.06;;;10.12;87.08
70103;BME280;57470;50.034;15.256;2022-09-29T06:24:15;98124.31;;;10.79;85.01
70103;BME280;57470;50.034;15.256;2022-09-29T06:26:40;98123.56;;;10.38;86.09
70103;BME280;57470;50.034;15.256;2022-09-29T06:29:06;98125.13;;;12.21;80.87
70103;BME280;57470;50.034;15.256;2022-09-29T06:31:31;98120.09;;;12.18;81.15
70103;BME280;57470;50.034;15.256;2022-09-29T06:33:58;98117.31;;;10.97;84.26
70103;BME280;57470;50.034;15.256;2022-09-29T06:36:34;98123.88;;;11.22;84.20
70103;BME280;57470;50.034;15.256;2022-09-29T06:39:19;98120.66;;;11.84;83.52
70103;BME280;57470;50.034;15.256;2022-09-29T06:41:45;98119.28;;;10.76;83.22
70103;BME280;57470;50.034;15.256;2022-09-29T06:44:16;98120.56;;;10.81;85.48
70103;BME280;57470;50.034;15.256;2022-09-29T06:46:42;98110.69;;;10.34;86.88
70103;BME280;57470;50.034;15.256;2022-09-29T06:49:08;98115.59;;;10.48;88.20
70103;BME280;57470;50.034;15.256;2022-09-29T06:51:35;98111.50;;;10.25;89.23
70103;BME280;57470;50.034;15.256;2022-09-29T06:54:01;98106.31;;;10.23;88.68
70103;BME280;57470;50.034;15.256;2022-09-29T06:56:26;98115.75;;;10.66;87.54
70103;BME280;57470;50.034;15.256;2022-09-29T06:58:52;98111.94;;;10.39;87.19
70103;BME280;57470;50.034;15.256;2022-09-29T07:01:17;98103.97;;;9.90;90.16
70103;BME280;57470;50.034;15.256;2022-09-29T07:03:43;98115.22;;;10.72;89.49
70103;BME280;57470;50.034;15.256;2022-09-29T07:06:09;98117.88;;;10.81;88.71
70103;BME280;57470;50.034;15.256;2022-09-29T07:08:35;98113.53;;;11.09;88.67
70103;BME280;57470;50.034;15.256;2022-09-29T07:11:04;98115.16;;;10.33;90.30
70103;BME280;57470;50.034;15.256;2022-09-29T07:13:30;98114.81;;;10.86;89.17
70103;BME280;57470;50.034;15.256;2022-09-29T07:15:55;98116.19;;;10.61;88.80
70103;BME280;57470;50.034;15.256;2022-09-29T07:18:21;98125.03;;;10.81;90.00
70103;BME280;57470;50.034;15.256;2022-09-29T07:20:47;98132.31;;;11.17;88.43
70103;BME280;57470;50.034;15.256;2022-09-29T07:23:12;98139.53;;;11.54;86.45
70103;BME280;57470;50.034;15.256;2022-09-29T07:25:38;98129.97;;;11.61;84.10
70103;BME280;57470;50.034;15.256;2022-09-29T07:28:03;98128.41;;;11.68;83.65
70103;BME280;57470;50.034;15.256;2022-09-29T07:30:28;98125.34;;;11.63;83.08
70103;BME280;57470;50.034;15.256;2022-09-29T07:32:55;98124.69;;;11.42;83.17
70103;BME280;57470;50.034;15.256;2022-09-29T07:35:21;98121.22;;;11.12;82.43
70103;BME280;57470;50.034;15.256;2022-09-29T07:37:51;98120.94;;;11.35;81.25
70103;BME280;57470;50.034;15.256;2022-09-29T07:40:17;98126.06;;;11.46;80.75
70103;BME280;57470;50.034;15.256;2022-09-29T07:42:42;98131.56;;;11.44;82.44
70103;BME280;57470;50.034;15.256;2022-09-29T07:45:08;98133.78;;;11.49;81.82
70103;BME280;57470;50.034;15.256;2022-09-29T07:47:33;98134.31;;;11.72;80.81
70103;BME280;57470;50.034;15.256;2022-09-29T07:49:58;98136.53;;;11.76;80.98
70103;BME280;57470;50.034;15.256;2022-09-29T07:52:24;98142.06;;;12.02;82.89
70103;BME280;57470;50.034;15.256;2022-09-29T07:54:49;98136.91;;;11.35;85.52
70103;BME280;57470;50.034;15.256;2022-09-29T07:57:14;98140.84;;;11.02;87.85
70103;BME280;57470;50.034;15.256;2022-09-29T07:59:40;98136.53;;;11.66;84.62
70103;BME280;57470;50.034;15.256;2022-09-29T08:02:05;98140.19;;;11.75;86.44
70103;BME280;57470;50.034;15.256;2022-09-29T08:04:32;98141.41;;;11.15;84.83
70103;BME280;57470;50.034;15.256;2022-09-29T08:06:57;98142.19;;;12.00;82.88
70103;BME280;57470;50.034;15.256;2022-09-29T08:09:22;98145.13;;;11.60;84.55
70103;BME280;57470;50.034;15.256;2022-09-29T08:11:48;98145.25;;;12.43;82.74
70103;BME280;57470;50.034;15.256;2022-09-29T08:14:14;98146.22;;;12.42;80.74
70103;BME280;57470;50.034;15.256;2022-09-29T08:16:39;98144.03;;;12.55;79.55
70103;BME280;57470;50.034;15.256;2022-09-29T08:19:05;98140.28;;;11.74;81.52
70103;BME280;57470;50.034;15.256;2022-09-29T08:21:31;98148.00;;;12.51;81.26
70103;BME280;57470;50.034;15.256;2022-09-29T08:24:00;98151.03;;;12.01;81.54
70103;BME280;57470;50.034;15.256;2022-09-29T08:26:26;98157.97;;;12.21;80.58
70103;BME280;57470;50.034;15.256;2022-09-29T08:28:52;98155.06;;;12.87;79.36
70103;BME280;57470;50.034;15.256;2022-09-29T08:31:19;98150.53;;;13.15;78.97
70103;BME280;57470;50.034;15.256;2022-09-29T08:33:49;98158.09;;;13.10;75.82
70103;BME280;57470;50.034;15.256;2022-09-29T08:36:16;98167.63;;;12.95;77.80
70103;BME280;57470;50.034;15.256;2022-09-29T08:38:52;98161.69;;;12.83;74.45
70103;BME280;57470;50.034;15.256;2022-09-29T08:43:59;98165.59;;;13.42;75.60
70103;BME280;57470;50.034;15.256;2022-09-29T08:46:30;98151.31;;;13.33;73.29
70103;BME280;57470;50.034;15.256;2022-09-29T08:49:02;98154.50;;;13.55;73.85
70103;BME280;57470;50.034;15.256;2022-09-29T08:51:33;98163.38;;;13.37;74.70
70103;BME280;57470;50.034;15.256;2022-09-29T08:54:23;98160.09;;;13.26;73.49
70103;BME280;57470;50.034;15.256;2022-09-29T08:56:50;98161.59;;;12.93;74.14
70103;BME280;57470;50.034;15.256;2022-09-29T08:59:15;98163.25;;;13.21;73.88
70103;BME280;57470;50.034;15.256;2022-09-29T09:01:50;98166.06;;;13.20;77.11
70103;BME280;57470;50.034;15.256;2022-09-29T09:07:20;98159.84;;;13.55;71.89
70103;BME280;57470;50.034;15.256;2022-09-29T09:13:02;98169.69;;;13.54;72.94
70103;BME280;57470;50.034;15.256;2022-09-29T09:21:08;98183.88;;;13.55;71.16
70103;BME280;57470;50.034;15.256;2022-09-29T09:26:05;98183.78;;;13.90;71.25
70103;BME280;57470;50.034;15.256;2022-09-29T09:28:50;98191.00;;;14.23;73.95
70103;BME280;57470;50.034;15.256;2022-09-29T09:31:25;98200.91;;;14.05;73.15
70103;BME280;57470;50.034;15.256;2022-09-29T09:36:40;98192.00;;;13.97;72.58
70103;BME280;57470;50.034;15.256;2022-09-29T09:41:51;98194.38;;;14.00;71.01
70103;BME280;57470;50.034;15.256;2022-09-29T09:44:28;98183.19;;;13.52;69.75
70103;BME280;57470;50.034;15.256;2022-09-29T09:47:01;98191.34;;;13.51;69.03
70103;BME280;57470;50.034;15.256;2022-09-29T09:49:36;98188.03;;;13.31;71.69
70103;BME280;57470;50.034;15.256;2022-09-29T09:52:18;98188.00;;;13.93;67.96
70103;BME280;57470;50.034;15.256;2022-09-29T09:54:49;98189.03;;;13.74;67.64
70103;BME280;57470;50.034;15.256;2022-09-29T10:02:22;98175.66;;;14.34;67.27
70103;BME280;57470;50.034;15.256;2022-09-29T10:04:50;98183.41;;;14.79;66.93
70103;BME280;57470;50.034;15.256;2022-09-29T10:07:18;98178.94;;;15.03;67.22
70103;BME280;57470;50.034;15.256;2022-09-29T10:09:44;98184.13;;;15.13;65.10
70103;BME280;57470;50.034;15.256;2022-09-29T10:12:17;98177.16;;;15.28;67.22
70103;BME280;57470;50.034;15.256;2022-09-29T10:14:50;98181.97;;;15.25;65.99
70103;BME280;57470;50.034;15.256;2022-09-29T10:17:18;98174.81;;;15.66;64.99
70103;BME280;57470;50.034;15.256;2022-09-29T10:19:59;98190.03;;;15.41;63.94
70103;BME280;57470;50.034;15.256;2022-09-29T10:22:26;98197.06;;;16.07;62.92
70103;BME280;57470;50.034;15.256;2022-09-29T10:25:17;98196.22;;;15.50;64.83
70103;BME280;57470;50.034;15.256;2022-09-29T10:27:46;98188.69;;;15.37;67.26
70103;BME280;57470;50.034;15.256;2022-09-29T10:30:22;98183.16;;;15.87;61.76
70103;BME280;57470;50.034;15.256;2022-09-29T10:32:48;98193.38;;;16.08;61.56
70103;BME280;57470;50.034;15.256;2022-09-29T10:35:21;98188.38;;;15.89;61.50
70103;BME280;57470;50.034;15.256;2022-09-29T10:38:01;98188.16;;;16.06;61.61
70103;BME280;57470;50.034;15.256;2022-09-29T10:40:27;98188.84;;;16.56;62.84
70103;BME280;57470;50.034;15.256;2022-09-29T10:42:55;98198.09;;;16.61;61.38
70103;BME280;57470;50.034;15.256;2022-09-29T10:45:22;98197.09;;;15.58;62.70
70103;BME280;57470;50.034;15.256;2022-09-29T10:48:12;98198.09;;;16.53;62.17
70103;BME280;57470;50.034;15.256;2022-09-29T10:51:13;98186.00;;;16.10;62.26
70103;BME280;57470;50.034;15.256;2022-09-29T10:53:46;98196.13;;;16.39;60.68
70103;BME280;57470;50.034;15.256;2022-09-29T10:56:18;98202.34;;;16.31;62.58
70103;BME280;57470;50.034;15.256;2022-09-29T10:58:52;98196.25;;;15.90;61.77
70103;BME280;57470;50.034;15.256;2022-09-29T11:01:19;98186.63;;;16.20;63.25
70103;BME280;57470;50.034;15.256;2022-09-29T11:03:49;98195.25;;;16.55;62.44
70103;BME280;57470;50.034;15.256;2022-09-29T11:06:16;98194.56;;;16.92;61.87
70103;BME280;57470;50.034;15.256;2022-09-29T11:11:28;98193.00;;;16.27;60.62
70103;BME280;57470;50.034;15.256;2022-09-29T11:13:54;98197.19;;;16.22;60.84
70103;BME280;57470;50.034;15.256;2022-09-29T11:16:27;98189.25;;;16.44;60.23
70103;BME280;57470;50.034;15.256;2022-09-29T11:18:57;98199.56;;;16.72;60.24
70103;BME280;57470;50.034;15.256;2022-09-29T11:21:47;98195.09;;;16.48;59.11
70103;BME280;57470;50.034;15.256;2022-09-29T11:24:37;98196.19;;;17.32;59.13
70103;BME280;57470;50.034;15.256;2022-09-29T11:30:06;98195.47;;;17.38;58.37
70103;BME280;57470;50.034;15.256;2022-09-29T11:33:09;98188.41;;;17.59;56.99
70103;BME280;57470;50.034;15.256;2022-09-29T11:52:22;98178.97;;;17.63;56.69
70103;BME280;57470;50.034;15.256;2022-09-29T11:55:32;98180.91;;;17.01;54.91
70103;BME280;57470;50.034;15.256;2022-09-29T11:58:19;98188.19;;;17.23;55.31
70103;BME280;57470;50.034;15.256;2022-09-29T12:06:30;98173.78;;;17.39;56.92
70103;BME280;57470;50.034;15.256;2022-09-29T12:14:21;98180.78;;;16.56;58.39
70103;BME280;57470;50.034;15.256;2022-09-29T12:16:58;98182.97;;;17.45;57.55
70103;BME280;57470;50.034;15.256;2022-09-29T12:19:30;98183.34;;;17.42;58.37
70103;BME280;57470;50.034;15.256;2022-09-29T12:22:00;98182.69;;;17.40;57.34
70103;BME280;57470;50.034;15.256;2022-09-29T12:24:42;98175.97;;;16.90;58.55
70103;BME280;57470;50.034;15.256;2022-09-29T12:27:23;98189.66;;;16.64;58.45
70103;BME280;57470;50.034;15.256;2022-09-29T12:29:57;98183.50;;;16.47;59.17
70103;BME280;57470;50.034;15.256;2022-09-29T12:33:00;98188.50;;;16.67;57.78
70103;BME280;57470;50.034;15.256;2022-09-29T12:38:20;98186.16;;;16.95;57.36
70103;BME280;57470;50.034;15.256;2022-09-29T12:41:24;98190.06;;;15.73;58.85
70103;BME280;57470;50.034;15.256;2022-09-29T12:43:59;98190.03;;;15.98;60.20
70103;BME280;57470;50.034;15.256;2022-09-29T12:46:34;98186.00;;;16.10;57.92
70103;BME280;57470;50.034;15.256;2022-09-29T12:51:44;98187.97;;;16.24;55.83
70103;BME280;57470;50.034;15.256;2022-09-29T12:54:53;98189.50;;;16.58;56.02
70103;BME280;57470;50.034;15.256;2022-09-29T12:57:16;98195.59;;;16.51;56.75
70103;BME280;57470;50.034;15.256;2022-09-29T12:59:51;98192.41;;;16.48;56.08
70103;BME280;57470;50.034;15.256;2022-09-29T13:07:51;98194.09;;;16.41;59.29
70103;BME280;57470;50.034;15.256;2022-09-29T13:24:17;98209.50;;;16.55;59.39
70103;BME280;57470;50.034;15.256;2022-09-29T13:27:22;98208.47;;;16.56;60.45
70103;BME280;57470;50.034;15.256;2022-09-29T13:30:03;98206.44;;;16.58;58.67
70103;BME280;57470;50.034;15.256;2022-09-29T13:32:30;98214.53;;;16.50;58.79
70103;BME280;57470;50.034;15.256;2022-09-29T13:34:59;98212.88;;;16.49;58.39
70103;BME280;57470;50.034;15.256;2022-09-29T13:37:31;98197.94;;;16.63;58.33
70103;BME280;57470;50.034;15.256;2022-09-29T13:40:01;98206.84;;;16.39;58.11
70103;BME280;57470;50.034;15.256;2022-09-29T13:47:52;98200.50;;;16.32;57.01
70103;BME280;57470;50.034;15.256;2022-09-29T13:50:40;98198.44;;;15.79;59.14
70103;BME280;57470;50.034;15.256;2022-09-29T13:55:56;98197.72;;;16.17;57.84
70103;BME280;57470;50.034;15.256;2022-09-29T14:01:08;98201.50;;;16.39;59.53
70103;BME280;57470;50.034;15.256;2022-09-29T14:03:42;98203.72;;;16.27;58.21
70103;BME280;57470;50.034;15.256;2022-09-29T14:06:12;98192.41;;;16.48;58.61
70103;BME280;57470;50.034;15.256;2022-09-29T14:08:48;98195.16;;;16.79;57.89
70103;BME280;57470;50.034;15.256;2022-09-29T14:11:49;98197.13;;;16.46;55.97
70103;BME280;57470;50.034;15.256;2022-09-29T14:14:23;98200.50;;;16.32;58.17
70103;BME280;57470;50.034;15.256;2022-09-29T14:17:10;98196.94;;;16.47;58.37
70103;BME280;57470;50.034;15.256;2022-09-29T14:33:11;98213.97;;;17.33;57.69
70103;BME280;57470;50.034;15.256;2022-09-29T14:35:46;98221.44;;;17.22;58.42
70103;BME280;57470;50.034;15.256;2022-09-29T14:38:24;98223.16;;;17.15;57.34
70103;BME280;57470;50.034;15.256;2022-09-29T14:41:19;98222.31;;;16.84;59.27
70103;BME280;57470;50.034;15.256;2022-09-29T14:55:25;98228.13;;;16.48;58.42
70103;BME280;57470;50.034;15.256;2022-09-29T15:03:07;98233.91;;;16.21;60.21
70103;BME280;57470;50.034;15.256;2022-09-29T15:05:34;98232.91;;;16.22;59.95
70103;BME280;57470;50.034;15.256;2022-09-29T15:08:01;98238.94;;;16.24;60.40
70103;BME280;57470;50.034;15.256;2022-09-29T15:10:37;98236.41;;;16.31;60.33
70103;BME280;57470;50.034;15.256;2022-09-29T15:13:23;98237.63;;;16.04;61.54
70103;BME280;57470;50.034;15.256;2022-09-29T15:16:20;98229.84;;;16.41;61.36
70103;BME280;57470;50.034;15.256;2022-09-29T15:21:42;98246.97;;;16.32;60.19
70103;BME280;57470;50.034;15.256;2022-09-29T15:26:53;98259.34;;;16.41;61.14
70103;BME280;57470;50.034;15.256;2022-09-29T15:29:18;98256.19;;;16.22;61.63
70103;BME280;57470;50.034;15.256;2022-09-29T15:31:46;98252.03;;;16.27;61.98
70103;BME280;57470;50.034;15.256;2022-09-29T15:34:20;98257.06;;;15.98;61.58
70103;BME280;57470;50.034;15.256;2022-09-29T15:36:51;98253.41;;;15.91;62.26
70103;BME280;57470;50.034;15.256;2022-09-29T15:42:02;98267.13;;;15.88;63.90
70103;BME280;57470;50.034;15.256;2022-09-29T15:44:35;98272.19;;;15.74;65.75
70103;BME280;57470;50.034;15.256;2022-09-29T15:47:01;98275.94;;;15.39;66.85
70103;BME280;57470;50.034;15.256;2022-09-29T15:49:27;98275.63;;;15.43;66.86
70103;BME280;57470;50.034;15.256;2022-09-29T15:52:00;98277.78;;;15.39;67.46
70103;BME280;57470;50.034;15.256;2022-09-29T15:54:34;98281.25;;;15.23;68.52
70103;BME280;57470;50.034;15.256;2022-09-29T15:57:03;98285.44;;;15.18;70.04
70103;BME280;57470;50.034;15.256;2022-09-29T15:59:49;98293.94;;;15.13;70.46
70103;BME280;57470;50.034;15.256;2022-09-29T16:02:25;98285.38;;;15.01;70.24
70103;BME280;57470;50.034;15.256;2022-09-29T16:05:05;98302.56;;;14.91;71.90
70103;BME280;57470;50.034;15.256;2022-09-29T16:07:37;98303.88;;;14.87;72.96